sensor_id;sensor_type;location;lat;lon;timestamp;P1;durP1;ratioP1;P2;durP2;ratioP2
5688;SDS011;2869;50.432;8.680;2023-09-08T00:01:15;8.53;;;5.50;;
5688;SDS011;2869;50.432;8.680;2023-09-08T00:03:42;9.47;;;6.47;;
5688;SDS011;2869;50.432;8.680;2023-09-08T00:06:08;6.43;;;5.80;;
5688;SDS011;2869;50.432;8.680;2023-09-08T00:08:35;8.00;;;6.10;;
5688;SDS011;2869;50.432;8.680;2023-09-08T00:11:02;7.90;;;6.10;;
5688;SDS011;2869;50.432;8.680;2023-09-08T00:13:29;10.53;;;5.90;;
5688;SDS011;2869;50.432;8.680;2023-09-08T00:15:57;10.10;;;6.33;;
5688;SDS011;2869;50.432;8.680;2023-09-08T00:18:24;7.60;;;6.20;;
5688;SDS011;2869;50.432;8.680;2023-09-08T00:20:51;10.27;;;7.23;;
5688;SDS011;2869;50.432;8.680;2023-09-08T00:23:17;12.47;;;7.00;;
5688;SDS011;2869;50.432;8.680;2023-09-08T00:25:44;8.87;;;7.20;;
5688;SDS011;2869;50.432;8.680;2023-09-08T00:28:11;10.70;;;7.50;;
5688;SDS011;2869;50.432;8.680;2023-09-08T00:30:37;12.20;;;6.97;;
5688;SDS011;2869;50.432;8.680;2023-09-08T00:33:05;14.80;;;7.40;;
5688;SDS011;2869;50.432;8.680;2023-09-08T00:35:33;9.70;;;6.43;;
5688;SDS011;2869;50.432;8.680;2023-09-08T00:38:00;8.53;;;6.60;;
5688;SDS011;2869;50.432;8.680;2023-09-08T00:40:27;9.40;;;7.10;;
5688;SDS011;2869;50.432;8.680;2023-09-08T00:42:54;7.17;;;6.30;;
5688;SDS011;2869;50.432;8.680;2023-09-08T00:45:20;8.40;;;6.60;;
5688;SDS011;2869;50.432;8.680;2023-09-08T00:47:48;10.03;;;6.60;;
5688;SDS011;2869;50.432;8.680;2023-09-08T00:50:16;8.53;;;6.07;;
5688;SDS011;2869;50.432;8.680;2023-09-08T00:52:43;7.33;;;5.80;;
5688;SDS011;2869;50.432;8.680;2023-09-08T00:55:10;11.67;;;6.77;;
5688;SDS011;2869;50.432;8.680;2023-09-08T00:57:37;6.67;;;6.07;;
5688;SDS011;2869;50.432;8.680;2023-09-08T01:00:04;9.37;;;6.87;;
5688;SDS011;2869;50.432;8.680;2023-09-08T01:02:31;8.80;;;6.67;;
5688;SDS011;2869;50.432;8.680;2023-09-08T01:04:58;9.53;;;6.83;;
5688;SDS011;2869;50.432;8.680;2023-09-08T01:07:27;6.90;;;6.30;;
5688;SDS011;2869;50.432;8.680;2023-09-08T01:09:57;11.23;;;7.17;;
5688;SDS011;2869;50.432;8.680;2023-09-08T01:12:29;13.00;;;7.43;;
5688;SDS011;2869;50.432;8.680;2023-09-08T01:14:55;9.73;;;7.03;;
5688;SDS011;2869;50.432;8.680;2023-09-08T01:17:22;9.23;;;7.83;;
5688;SDS011;2869;50.432;8.680;2023-09-08T01:19:49;14.23;;;6.90;;
5688;SDS011;2869;50.432;8.680;2023-09-08T01:22:21;8.97;;;7.60;;
5688;SDS011;2869;50.432;8.680;2023-09-08T01:27:55;16.60;;;7.20;;
5688;SDS011;2869;50.432;8.680;2023-09-08T01:30:25;10.63;;;7.10;;
5688;SDS011;2869;50.432;8.680;2023-09-08T01:32:57;17.47;;;7.00;;
5688;SDS011;2869;50.432;8.680;2023-09-08T01:35:25;16.33;;;6.50;;
5688;SDS011;2869;50.432;8.680;2023-09-08T01:37:51;11.13;;;6.87;;
5688;SDS011;2869;50.432;8.680;2023-09-08T01:40:18;7.67;;;6.87;;
5688;SDS011;2869;50.432;8.680;2023-09-08T01:42:47;9.53;;;6.30;;
5688;SDS011;2869;50.432;8.680;2023-09-08T01:45:14;8.33;;;6.00;;
5688;SDS011;2869;50.432;8.680;2023-09-08T01:47:40;11.43;;;6.43;;
5688;SDS011;2869;50.432;8.680;2023-09-08T01:50:07;11.93;;;6.30;;
5688;SDS011;2869;50.432;8.680;2023-09-08T01:52:36;9.13;;;5.73;;
5688;SDS011;2869;50.432;8.680;2023-09-08T01:55:03;7.70;;;5.77;;
5688;SDS011;2869;50.432;8.680;2023-09-08T01:57:30;9.10;;;6.93;;
5688;SDS011;2869;50.432;8.680;2023-09-08T01:59:58;7.80;;;5.80;;
5688;SDS011;2869;50.432;8.680;2023-09-08T02:02:25;8.10;;;6.43;;
5688;SDS011;2869;50.432;8.680;2023-09-08T02:04:51;11.80;;;6.60;;
5688;SDS011;2869;50.432;8.680;2023-09-08T02:07:18;7.43;;;6.63;;
5688;SDS011;2869;50.432;8.680;2023-09-08T02:09:45;6.80;;;5.93;;
5688;SDS011;2869;50.432;8.680;2023-09-08T02:12:11;6.67;;;6.00;;
5688;SDS011;2869;50.432;8.680;2023-09-08T02:14:38;6.63;;;5.93;;
5688;SDS011;2869;50.432;8.680;2023-09-08T02:17:06;14.20;;;6.20;;
5688;SDS011;2869;50.432;8.680;2023-09-08T02:19:33;7.83;;;7.03;;
5688;SDS011;2869;50.432;8.680;2023-09-08T02:21:59;6.60;;;5.97;;
5688;SDS011;2869;50.432;8.680;2023-09-08T02:24:26;7.60;;;6.67;;
5688;SDS011;2869;50.432;8.680;2023-09-08T02:26:53;9.20;;;6.87;;
5688;SDS011;2869;50.432;8.680;2023-09-08T02:29:20;7.17;;;6.47;;
5688;SDS011;2869;50.432;8.680;2023-09-08T02:31:47;9.00;;;7.13;;
5688;SDS011;2869;50.432;8.680;2023-09-08T02:34:15;10.10;;;7.40;;
5688;SDS011;2869;50.432;8.680;2023-09-08T02:36:42;10.70;;;7.10;;
5688;SDS011;2869;50.432;8.680;2023-09-08T02:39:11;8.50;;;6.90;;
5688;SDS011;2869;50.432;8.680;2023-09-08T02:41:38;12.90;;;8.07;;
5688;SDS011;2869;50.432;8.680;2023-09-08T02:44:05;10.13;;;7.30;;
5688;SDS011;2869;50.432;8.680;2023-09-08T02:46:32;9.10;;;7.37;;
5688;SDS011;2869;50.432;8.680;2023-09-08T02:48:58;11.87;;;7.20;;
5688;SDS011;2869;50.432;8.680;2023-09-08T02:51:27;9.90;;;7.20;;
5688;SDS011;2869;50.432;8.680;2023-09-08T02:53:54;10.93;;;7.27;;
5688;SDS011;2869;50.432;8.680;2023-09-08T02:56:21;8.00;;;7.10;;
5688;SDS011;2869;50.432;8.680;2023-09-08T02:58:47;13.97;;;7.47;;
5688;SDS011;2869;50.432;8.680;2023-09-08T03:01:14;9.93;;;7.00;;
5688;SDS011;2869;50.432;8.680;2023-09-08T03:03:45;7.70;;;6.60;;
5688;SDS011;2869;50.432;8.680;2023-09-08T03:06:13;12.20;;;7.60;;
5688;SDS011;2869;50.432;8.680;2023-09-08T03:08:41;12.03;;;6.97;;
5688;SDS011;2869;50.432;8.680;2023-09-08T03:11:08;10.73;;;5.83;;
5688;SDS011;2869;50.432;8.680;2023-09-08T03:13:35;7.43;;;6.50;;
5688;SDS011;2869;50.432;8.680;2023-09-08T03:16:02;7.57;;;6.87;;
5688;SDS011;2869;50.432;8.680;2023-09-08T03:18:30;9.90;;;6.60;;
5688;SDS011;2869;50.432;8.680;2023-09-08T03:20:57;7.73;;;6.53;;
5688;SDS011;2869;50.432;8.680;2023-09-08T03:23:24;8.87;;;6.50;;
5688;SDS011;2869;50.432;8.680;2023-09-08T03:25:52;7.73;;;6.90;;
5688;SDS011;2869;50.432;8.680;2023-09-08T03:28:19;8.20;;;7.33;;
5688;SDS011;2869;50.432;8.680;2023-09-08T03:30:45;8.00;;;7.20;;
5688;SDS011;2869;50.432;8.680;2023-09-08T03:33:12;8.80;;;7.90;;
5688;SDS011;2869;50.432;8.680;2023-09-08T03:35:39;17.03;;;8.77;;
5688;SDS011;2869;50.432;8.680;2023-09-08T03:38:05;20.00;;;7.40;;
5688;SDS011;2869;50.432;8.680;2023-09-08T03:40:32;12.53;;;8.63;;
5688;SDS011;2869;50.432;8.680;2023-09-08T03:43:00;10.10;;;8.90;;
5688;SDS011;2869;50.432;8.680;2023-09-08T03:45:27;9.50;;;8.43;;
5688;SDS011;2869;50.432;8.680;2023-09-08T03:47:54;12.53;;;7.73;;
5688;SDS011;2869;50.432;8.680;2023-09-08T03:50:20;13.63;;;8.27;;
5688;SDS011;2869;50.432;8.680;2023-09-08T03:52:47;11.70;;;8.83;;
5688;SDS011;2869;50.432;8.680;2023-09-08T03:55:14;10.90;;;8.67;;
5688;SDS011;2869;50.432;8.680;2023-09-08T03:57:42;13.43;;;8.63;;
5688;SDS011;2869;50.432;8.680;2023-09-08T04:00:10;11.77;;;7.80;;
5688;SDS011;2869;50.432;8.680;2023-09-08T04:02:37;11.23;;;9.13;;
5688;SDS011;2869;50.432;8.680;2023-09-08T04:05:04;10.17;;;8.40;;
5688;SDS011;2869;50.432;8.680;2023-09-08T04:07:32;12.57;;;8.57;;
5688;SDS011;2869;50.432;8.680;2023-09-08T04:09:58;10.83;;;8.50;;
5688;SDS011;2869;50.432;8.680;2023-09-08T04:12:25;11.30;;;8.50;;
5688;SDS011;2869;50.432;8.680;2023-09-08T04:14:52;12.43;;;9.10;;
5688;SDS011;2869;50.432;8.680;2023-09-08T04:17:20;17.43;;;9.60;;
5688;SDS011;2869;50.432;8.680;2023-09-08T04:19:46;12.93;;;8.90;;
5688;SDS011;2869;50.432;8.680;2023-09-08T04:22:13;14.53;;;9.27;;
5688;SDS011;2869;50.432;8.680;2023-09-08T04:24:39;13.60;;;10.10;;
5688;SDS011;2869;50.432;8.680;2023-09-08T04:27:06;10.80;;;9.70;;
5688;SDS011;2869;50.432;8.680;2023-09-08T04:29:33;17.00;;;9.50;;
5688;SDS011;2869;50.432;8.680;2023-09-08T04:32:00;15.70;;;9.63;;
5688;SDS011;2869;50.432;8.680;2023-09-08T04:34:34;16.23;;;10.30;;
5688;SDS011;2869;50.432;8.680;2023-09-08T04:37:02;14.67;;;10.20;;
5688;SDS011;2869;50.432;8.680;2023-09-08T04:39:29;14.73;;;9.90;;
5688;SDS011;2869;50.432;8.680;2023-09-08T04:41:56;13.27;;;10.00;;
5688;SDS011;2869;50.432;8.680;2023-09-08T04:44:22;12.37;;;9.93;;
5688;SDS011;2869;50.432;8.680;2023-09-08T04:46:49;14.70;;;9.63;;
5688;SDS011;2869;50.432;8.680;2023-09-08T04:49:16;20.50;;;9.30;;
5688;SDS011;2869;50.432;8.680;2023-09-08T04:51:44;11.83;;;8.80;;
5688;SDS011;2869;50.432;8.680;2023-09-08T04:54:11;13.40;;;9.60;;
5688;SDS011;2869;50.432;8.680;2023-09-08T04:56:38;19.67;;;8.93;;
5688;SDS011;2869;50.432;8.680;2023-09-08T04:59:05;12.10;;;8.73;;
5688;SDS011;2869;50.432;8.680;2023-09-08T05:01:32;11.70;;;8.63;;
5688;SDS011;2869;50.432;8.680;2023-09-08T05:04:01;18.23;;;9.10;;
5688;SDS011;2869;50.432;8.680;2023-09-08T05:06:28;20.33;;;8.40;;
5688;SDS011;2869;50.432;8.680;2023-09-08T05:08:58;15.10;;;9.10;;
5688;SDS011;2869;50.432;8.680;2023-09-08T05:11:25;17.47;;;9.47;;
5688;SDS011;2869;50.432;8.680;2023-09-08T05:13:52;11.00;;;8.20;;
5688;SDS011;2869;50.432;8.680;2023-09-08T05:16:19;16.83;;;8.73;;
5688;SDS011;2869;50.432;8.680;2023-09-08T05:19:02;20.50;;;9.07;;
5688;SDS011;2869;50.432;8.680;2023-09-08T05:21:28;16.90;;;8.97;;
5688;SDS011;2869;50.432;8.680;2023-09-08T05:23:57;9.90;;;8.23;;
5688;SDS011;2869;50.432;8.680;2023-09-08T05:26:24;12.50;;;9.10;;
5688;SDS011;2869;50.432;8.680;2023-09-08T05:28:51;17.20;;;9.23;;
5688;SDS011;2869;50.432;8.680;2023-09-08T05:31:17;13.20;;;9.37;;
5688;SDS011;2869;50.432;8.680;2023-09-08T05:33:44;18.37;;;9.00;;
5688;SDS011;2869;50.432;8.680;2023-09-08T05:36:11;14.43;;;8.70;;
5688;SDS011;2869;50.432;8.680;2023-09-08T05:38:37;14.60;;;8.93;;
5688;SDS011;2869;50.432;8.680;2023-09-08T05:41:05;16.27;;;8.50;;
5688;SDS011;2869;50.432;8.680;2023-09-08T05:43:32;16.00;;;8.10;;
5688;SDS011;2869;50.432;8.680;2023-09-08T05:45:58;13.47;;;7.83;;
5688;SDS011;2869;50.432;8.680;2023-09-08T05:48:25;14.90;;;7.87;;
5688;SDS011;2869;50.432;8.680;2023-09-08T05:50:52;15.83;;;7.60;;
5688;SDS011;2869;50.432;8.680;2023-09-08T05:53:18;11.67;;;8.30;;
5688;SDS011;2869;50.432;8.680;2023-09-08T05:55:45;17.80;;;8.47;;
5688;SDS011;2869;50.432;8.680;2023-09-08T05:58:13;13.70;;;8.00;;
5688;SDS011;2869;50.432;8.680;2023-09-08T06:00:40;14.17;;;8.90;;
5688;SDS011;2869;50.432;8.680;2023-09-08T06:03:07;12.00;;;8.93;;
5688;SDS011;2869;50.432;8.680;2023-09-08T06:05:34;15.90;;;8.63;;
5688;SDS011;2869;50.432;8.680;2023-09-08T06:08:00;22.23;;;9.17;;
5688;SDS011;2869;50.432;8.680;2023-09-08T06:10:27;25.90;;;10.30;;
5688;SDS011;2869;50.432;8.680;2023-09-08T06:12:55;18.43;;;9.70;;
5688;SDS011;2869;50.432;8.680;2023-09-08T06:15:23;15.70;;;8.30;;
5688;SDS011;2869;50.432;8.680;2023-09-08T06:17:50;14.57;;;9.37;;
5688;SDS011;2869;50.432;8.680;2023-09-08T06:20:16;18.30;;;10.17;;
5688;SDS011;2869;50.432;8.680;2023-09-08T06:22:43;15.00;;;9.97;;
5688;SDS011;2869;50.432;8.680;2023-09-08T06:25:10;15.47;;;9.37;;
5688;SDS011;2869;50.432;8.680;2023-09-08T06:27:36;12.33;;;9.30;;
5688;SDS011;2869;50.432;8.680;2023-09-08T06:30:03;14.63;;;10.00;;
5688;SDS011;2869;50.432;8.680;2023-09-08T06:32:32;17.60;;;9.10;;
5688;SDS011;2869;50.432;8.680;2023-09-08T06:34:58;14.53;;;9.37;;
5688;SDS011;2869;50.432;8.680;2023-09-08T06:37:25;18.83;;;8.70;;
5688;SDS011;2869;50.432;8.680;2023-09-08T06:39:54;24.37;;;8.50;;
5688;SDS011;2869;50.432;8.680;2023-09-08T06:42:20;12.07;;;8.20;;
5688;SDS011;2869;50.432;8.680;2023-09-08T06:44:47;11.53;;;9.20;;
5688;SDS011;2869;50.432;8.680;2023-09-08T06:47:14;15.90;;;9.00;;
5688;SDS011;2869;50.432;8.680;2023-09-08T06:49:42;13.87;;;8.30;;
5688;SDS011;2869;50.432;8.680;2023-09-08T06:52:08;11.87;;;8.50;;
5688;SDS011;2869;50.432;8.680;2023-09-08T06:54:35;11.80;;;9.03;;
5688;SDS011;2869;50.432;8.680;2023-09-08T06:57:02;17.73;;;7.50;;
5688;SDS011;2869;50.432;8.680;2023-09-08T06:59:29;8.43;;;7.50;;
5688;SDS011;2869;50.432;8.680;2023-09-08T07:01:55;11.07;;;7.53;;
5688;SDS011;2869;50.432;8.680;2023-09-08T07:04:22;13.80;;;7.93;;
5688;SDS011;2869;50.432;8.680;2023-09-08T07:06:50;17.13;;;8.13;;
5688;SDS011;2869;50.432;8.680;2023-09-08T07:09:19;12.33;;;7.97;;
5688;SDS011;2869;50.432;8.680;2023-09-08T07:11:46;10.40;;;8.63;;
5688;SDS011;2869;50.432;8.680;2023-09-08T07:14:12;11.87;;;9.90;;
5688;SDS011;2869;50.432;8.680;2023-09-08T07:16:39;11.90;;;10.53;;
5688;SDS011;2869;50.432;8.680;2023-09-08T07:19:06;11.90;;;9.20;;
5688;SDS011;2869;50.432;8.680;2023-09-08T07:21:32;10.00;;;8.20;;
5688;SDS011;2869;50.432;8.680;2023-09-08T07:24:00;10.17;;;9.17;;
5688;SDS011;2869;50.432;8.680;2023-09-08T07:26:27;14.20;;;9.00;;
5688;SDS011;2869;50.432;8.680;2023-09-08T07:28:54;10.73;;;8.57;;
5688;SDS011;2869;50.432;8.680;2023-09-08T07:31:21;12.73;;;8.13;;
5688;SDS011;2869;50.432;8.680;2023-09-08T07:33:47;11.50;;;8.50;;
5688;SDS011;2869;50.432;8.680;2023-09-08T07:36:15;10.47;;;9.03;;
5688;SDS011;2869;50.432;8.680;2023-09-08T07:38:41;11.40;;;8.27;;
5688;SDS011;2869;50.432;8.680;2023-09-08T07:41:09;12.60;;;8.57;;
5688;SDS011;2869;50.432;8.680;2023-09-08T07:43:36;12.73;;;8.27;;
5688;SDS011;2869;50.432;8.680;2023-09-08T07:46:05;12.57;;;9.17;;
5688;SDS011;2869;50.432;8.680;2023-09-08T07:48:32;12.87;;;8.07;;
5688;SDS011;2869;50.432;8.680;2023-09-08T07:50:59;11.50;;;7.93;;
5688;SDS011;2869;50.432;8.680;2023-09-08T07:53:25;9.37;;;7.90;;
5688;SDS011;2869;50.432;8.680;2023-09-08T07:55:52;8.50;;;7.43;;
5688;SDS011;2869;50.432;8.680;2023-09-08T07:58:21;12.13;;;7.40;;
5688;SDS011;2869;50.432;8.680;2023-09-08T08:00:47;8.73;;;7.40;;
5688;SDS011;2869;50.432;8.680;2023-09-08T08:03:14;13.07;;;7.00;;
5688;SDS011;2869;50.432;8.680;2023-09-08T08:05:41;7.10;;;6.40;;
5688;SDS011;2869;50.432;8.680;2023-09-08T08:08:07;11.00;;;6.07;;
5688;SDS011;2869;50.432;8.680;2023-09-08T08:10:34;10.23;;;6.50;;
5688;SDS011;2869;50.432;8.680;2023-09-08T08:13:01;7.13;;;6.23;;
5688;SDS011;2869;50.432;8.680;2023-09-08T08:15:35;8.33;;;6.80;;
5688;SDS011;2869;50.432;8.680;2023-09-08T08:18:03;6.47;;;5.87;;
5688;SDS011;2869;50.432;8.680;2023-09-08T08:20:30;8.93;;;6.47;;
5688;SDS011;2869;50.432;8.680;2023-09-08T08:22:59;8.37;;;6.30;;
5688;SDS011;2869;50.432;8.680;2023-09-08T08:25:26;8.23;;;5.83;;
5688;SDS011;2869;50.432;8.680;2023-09-08T08:27:53;6.83;;;6.17;;
5688;SDS011;2869;50.432;8.680;2023-09-08T08:30:19;9.47;;;6.40;;
5688;SDS011;2869;50.432;8.680;2023-09-08T08:32:47;11.93;;;6.20;;
5688;SDS011;2869;50.432;8.680;2023-09-08T08:35:16;6.60;;;5.50;;
5688;SDS011;2869;50.432;8.680;2023-09-08T08:37:43;11.10;;;5.90;;
5688;SDS011;2869;50.432;8.680;2023-09-08T08:40:10;7.10;;;5.83;;
5688;SDS011;2869;50.432;8.680;2023-09-08T08:42:37;8.00;;;6.60;;
5688;SDS011;2869;50.432;8.680;2023-09-08T08:45:04;8.33;;;6.00;;
5688;SDS011;2869;50.432;8.680;2023-09-08T08:47:32;7.77;;;6.50;;
5688;SDS011;2869;50.432;8.680;2023-09-08T08:50:00;9.73;;;6.20;;
5688;SDS011;2869;50.432;8.680;2023-09-08T08:52:28;7.37;;;6.00;;
5688;SDS011;2869;50.432;8.680;2023-09-08T08:54:55;6.23;;;5.40;;
5688;SDS011;2869;50.432;8.680;2023-09-08T08:57:22;6.83;;;6.07;;
5688;SDS011;2869;50.432;8.680;2023-09-08T08:59:51;6.00;;;5.40;;
5688;SDS011;2869;50.432;8.680;2023-09-08T09:02:18;10.50;;;6.10;;
5688;SDS011;2869;50.432;8.680;2023-09-08T09:04:45;9.30;;;6.47;;
5688;SDS011;2869;50.432;8.680;2023-09-08T09:07:13;8.97;;;5.90;;
5688;SDS011;2869;50.432;8.680;2023-09-08T09:09:40;11.33;;;6.33;;
5688;SDS011;2869;50.432;8.680;2023-09-08T09:12:07;19.53;;;6.43;;
5688;SDS011;2869;50.432;8.680;2023-09-08T09:14:34;11.13;;;6.43;;
5688;SDS011;2869;50.432;8.680;2023-09-08T09:17:01;6.53;;;5.67;;
5688;SDS011;2869;50.432;8.680;2023-09-08T09:19:29;7.77;;;5.63;;
5688;SDS011;2869;50.432;8.680;2023-09-08T09:21:57;11.30;;;5.90;;
5688;SDS011;2869;50.432;8.680;2023-09-08T09:24:29;5.60;;;5.10;;
5688;SDS011;2869;50.432;8.680;2023-09-08T09:26:58;7.90;;;5.53;;
5688;SDS011;2869;50.432;8.680;2023-09-08T09:29:25;6.90;;;5.80;;
5688;SDS011;2869;50.432;8.680;2023-09-08T09:31:53;9.20;;;5.47;;
5688;SDS011;2869;50.432;8.680;2023-09-08T09:34:21;6.57;;;5.70;;
5688;SDS011;2869;50.432;8.680;2023-09-08T09:36:48;12.57;;;6.37;;
5688;SDS011;2869;50.432;8.680;2023-09-08T09:39:18;10.80;;;5.80;;
5688;SDS011;2869;50.432;8.680;2023-09-08T09:41:47;10.17;;;5.30;;
5688;SDS011;2869;50.432;8.680;2023-09-08T09:44:14;9.53;;;6.00;;
5688;SDS011;2869;50.432;8.680;2023-09-08T09:46:44;7.90;;;5.37;;
5688;SDS011;2869;50.432;8.680;2023-09-08T09:49:11;9.67;;;5.77;;
5688;SDS011;2869;50.432;8.680;2023-09-08T09:51:42;8.30;;;5.63;;
5688;SDS011;2869;50.432;8.680;2023-09-08T09:54:09;11.97;;;5.37;;
5688;SDS011;2869;50.432;8.680;2023-09-08T09:56:37;8.23;;;5.33;;
5688;SDS011;2869;50.432;8.680;2023-09-08T09:59:05;16.40;;;7.07;;
5688;SDS011;2869;50.432;8.680;2023-09-08T10:01:34;7.97;;;5.60;;
5688;SDS011;2869;50.432;8.680;2023-09-08T10:04:01;9.93;;;5.30;;
5688;SDS011;2869;50.432;8.680;2023-09-08T10:06:30;7.63;;;5.23;;
5688;SDS011;2869;50.432;8.680;2023-09-08T10:08:58;8.93;;;5.97;;
5688;SDS011;2869;50.432;8.680;2023-09-08T10:11:26;5.80;;;5.30;;
5688;SDS011;2869;50.432;8.680;2023-09-08T10:13:55;8.43;;;5.67;;
5688;SDS011;2869;50.432;8.680;2023-09-08T10:16:26;5.60;;;4.83;;
5688;SDS011;2869;50.432;8.680;2023-09-08T10:18:54;11.37;;;5.80;;
5688;SDS011;2869;50.432;8.680;2023-09-08T10:21:23;10.70;;;5.27;;
5688;SDS011;2869;50.432;8.680;2023-09-08T10:23:54;9.37;;;5.47;;
5688;SDS011;2869;50.432;8.680;2023-09-08T10:26:27;7.57;;;5.17;;
5688;SDS011;2869;50.432;8.680;2023-09-08T10:28:56;5.77;;;5.27;;
5688;SDS011;2869;50.432;8.680;2023-09-08T10:31:23;9.27;;;7.00;;
5688;SDS011;2869;50.432;8.680;2023-09-08T10:33:53;5.97;;;5.20;;
5688;SDS011;2869;50.432;8.680;2023-09-08T10:36:21;9.47;;;6.07;;
5688;SDS011;2869;50.432;8.680;2023-09-08T10:38:49;5.83;;;5.33;;
5688;SDS011;2869;50.432;8.680;2023-09-08T10:41:26;6.20;;;5.13;;
5688;SDS011;2869;50.432;8.680;2023-09-08T10:43:57;9.90;;;5.50;;
5688;SDS011;2869;50.432;8.680;2023-09-08T10:46:28;10.13;;;5.40;;
5688;SDS011;2869;50.432;8.680;2023-09-08T10:49:01;13.40;;;6.20;;
5688;SDS011;2869;50.432;8.680;2023-09-08T10:51:29;5.80;;;5.17;;
5688;SDS011;2869;50.432;8.680;2023-09-08T10:53:56;6.83;;;5.47;;
5688;SDS011;2869;50.432;8.680;2023-09-08T10:56:26;5.97;;;5.40;;
5688;SDS011;2869;50.432;8.680;2023-09-08T10:58:54;8.73;;;5.57;;
5688;SDS011;2869;50.432;8.680;2023-09-08T11:01:21;5.63;;;5.10;;
5688;SDS011;2869;50.432;8.680;2023-09-08T11:03:53;5.80;;;5.20;;
5688;SDS011;2869;50.432;8.680;2023-09-08T11:06:20;5.20;;;4.80;;
5688;SDS011;2869;50.432;8.680;2023-09-08T11:08:48;9.80;;;5.90;;
5688;SDS011;2869;50.432;8.680;2023-09-08T11:11:18;8.80;;;4.53;;
5688;SDS011;2869;50.432;8.680;2023-09-08T11:13:44;5.40;;;4.93;;
5688;SDS011;2869;50.432;8.680;2023-09-08T11:16:11;5.83;;;4.73;;
5688;SDS011;2869;50.432;8.680;2023-09-08T11:18:39;5.80;;;4.93;;
5688;SDS011;2869;50.432;8.680;2023-09-08T11:21:08;6.00;;;5.50;;
5688;SDS011;2869;50.432;8.680;2023-09-08T11:23:36;5.83;;;5.33;;
5688;SDS011;2869;50.432;8.680;2023-09-08T11:26:03;5.70;;;5.20;;
5688;SDS011;2869;50.432;8.680;2023-09-08T11:28:33;6.33;;;5.07;;
5688;SDS011;2869;50.432;8.680;2023-09-08T11:30:59;7.97;;;4.90;;
5688;SDS011;2869;50.432;8.680;2023-09-08T11:33:32;8.60;;;5.00;;
5688;SDS011;2869;50.432;8.680;2023-09-08T11:36:09;5.70;;;5.00;;
5688;SDS011;2869;50.432;8.680;2023-09-08T11:38:41;5.43;;;4.80;;
5688;SDS011;2869;50.432;8.680;2023-09-08T11:41:09;8.20;;;4.80;;
5688;SDS011;2869;50.432;8.680;2023-09-08T11:43:36;5.13;;;4.73;;
5688;SDS011;2869;50.432;8.680;2023-09-08T11:46:03;5.07;;;4.67;;
5688;SDS011;2869;50.432;8.680;2023-09-08T11:48:31;7.57;;;5.10;;
5688;SDS011;2869;50.432;8.680;2023-09-08T11:50:58;6.80;;;4.93;;
5688;SDS011;2869;50.432;8.680;2023-09-08T11:53:26;6.37;;;4.73;;
5688;SDS011;2869;50.432;8.680;2023-09-08T11:55:53;5.13;;;4.60;;
5688;SDS011;2869;50.432;8.680;2023-09-08T11:58:20;5.73;;;5.17;;
5688;SDS011;2869;50.432;8.680;2023-09-08T12:00:48;11.73;;;5.10;;
5688;SDS011;2869;50.432;8.680;2023-09-08T12:03:16;5.07;;;4.57;;
5688;SDS011;2869;50.432;8.680;2023-09-08T12:05:43;5.43;;;4.70;;
5688;SDS011;2869;50.432;8.680;2023-09-08T12:08:16;6.83;;;4.63;;
5688;SDS011;2869;50.432;8.680;2023-09-08T12:10:44;6.90;;;4.50;;
5688;SDS011;2869;50.432;8.680;2023-09-08T12:13:11;8.83;;;4.77;;
5688;SDS011;2869;50.432;8.680;2023-09-08T12:15:39;5.97;;;5.00;;
5688;SDS011;2869;50.432;8.680;2023-09-08T12:18:07;10.53;;;4.23;;
5688;SDS011;2869;50.432;8.680;2023-09-08T12:20:35;6.87;;;5.07;;
5688;SDS011;2869;50.432;8.680;2023-09-08T12:23:03;11.10;;;4.60;;
5688;SDS011;2869;50.432;8.680;2023-09-08T12:25:32;4.57;;;4.27;;
5688;SDS011;2869;50.432;8.680;2023-09-08T12:28:01;5.33;;;4.83;;
5688;SDS011;2869;50.432;8.680;2023-09-08T12:30:28;5.27;;;4.73;;
5688;SDS011;2869;50.432;8.680;2023-09-08T12:32:58;6.73;;;4.50;;
5688;SDS011;2869;50.432;8.680;2023-09-08T12:35:25;5.47;;;4.53;;
5688;SDS011;2869;50.432;8.680;2023-09-08T12:37:53;8.33;;;4.40;;
5688;SDS011;2869;50.432;8.680;2023-09-08T12:40:24;5.20;;;4.30;;
5688;SDS011;2869;50.432;8.680;2023-09-08T12:42:51;6.13;;;4.87;;
5688;SDS011;2869;50.432;8.680;2023-09-08T12:45:19;4.70;;;4.13;;
5688;SDS011;2869;50.432;8.680;2023-09-08T12:47:47;4.80;;;4.10;;
5688;SDS011;2869;50.432;8.680;2023-09-08T12:50:13;4.90;;;4.50;;
5688;SDS011;2869;50.432;8.680;2023-09-08T12:52:40;5.53;;;3.93;;
5688;SDS011;2869;50.432;8.680;2023-09-08T12:55:07;11.53;;;5.33;;
5688;SDS011;2869;50.432;8.680;2023-09-08T12:57:35;6.20;;;4.30;;
5688;SDS011;2869;50.432;8.680;2023-09-08T13:00:03;7.87;;;4.80;;
5688;SDS011;2869;50.432;8.680;2023-09-08T13:02:32;9.23;;;4.70;;
5688;SDS011;2869;50.432;8.680;2023-09-08T13:04:59;4.73;;;4.33;;
5688;SDS011;2869;50.432;8.680;2023-09-08T13:07:26;5.63;;;4.33;;
5688;SDS011;2869;50.432;8.680;2023-09-08T13:09:52;5.57;;;4.07;;
5688;SDS011;2869;50.432;8.680;2023-09-08T13:12:19;6.30;;;4.60;;
5688;SDS011;2869;50.432;8.680;2023-09-08T13:14:46;8.00;;;4.50;;
5688;SDS011;2869;50.432;8.680;2023-09-08T13:17:13;5.80;;;4.20;;
5688;SDS011;2869;50.432;8.680;2023-09-08T13:19:41;8.07;;;4.40;;
5688;SDS011;2869;50.432;8.680;2023-09-08T13:22:08;5.63;;;4.17;;
5688;SDS011;2869;50.432;8.680;2023-09-08T13:24:35;4.73;;;4.33;;
5688;SDS011;2869;50.432;8.680;2023-09-08T13:27:02;6.33;;;4.73;;
5688;SDS011;2869;50.432;8.680;2023-09-08T13:29:29;5.90;;;4.97;;
5688;SDS011;2869;50.432;8.680;2023-09-08T13:31:55;6.70;;;4.87;;
5688;SDS011;2869;50.432;8.680;2023-09-08T13:34:23;8.43;;;4.63;;
5688;SDS011;2869;50.432;8.680;2023-09-08T13:36:51;4.90;;;4.50;;
5688;SDS011;2869;50.432;8.680;2023-09-08T13:39:18;7.73;;;4.80;;
5688;SDS011;2869;50.432;8.680;2023-09-08T13:41:45;4.60;;;4.20;;
5688;SDS011;2869;50.432;8.680;2023-09-08T13:44:13;8.00;;;4.57;;
5688;SDS011;2869;50.432;8.680;2023-09-08T13:46:40;4.43;;;4.03;;
5688;SDS011;2869;50.432;8.680;2023-09-08T13:49:05;4.30;;;3.73;;
5688;SDS011;2869;50.432;8.680;2023-09-08T13:51:32;7.17;;;4.40;;
5688;SDS011;2869;50.432;8.680;2023-09-08T13:54:01;4.90;;;4.50;;
5688;SDS011;2869;50.432;8.680;2023-09-08T13:56:27;6.03;;;4.60;;
5688;SDS011;2869;50.432;8.680;2023-09-08T13:58:54;5.53;;;4.77;;
5688;SDS011;2869;50.432;8.680;2023-09-08T14:01:21;5.30;;;4.80;;
5688;SDS011;2869;50.432;8.680;2023-09-08T14:03:47;7.20;;;4.20;;
5688;SDS011;2869;50.432;8.680;2023-09-08T14:06:16;4.47;;;4.07;;
5688;SDS011;2869;50.432;8.680;2023-09-08T14:08:43;6.27;;;4.50;;
5688;SDS011;2869;50.432;8.680;2023-09-08T14:11:11;4.67;;;4.03;;
5688;SDS011;2869;50.432;8.680;2023-09-08T14:13:38;6.47;;;4.00;;
5688;SDS011;2869;50.432;8.680;2023-09-08T14:16:04;12.00;;;4.50;;
5688;SDS011;2869;50.432;8.680;2023-09-08T14:18:31;4.60;;;3.93;;
5688;SDS011;2869;50.432;8.680;2023-09-08T14:20:58;4.13;;;3.83;;
5688;SDS011;2869;50.432;8.680;2023-09-08T14:23:24;6.53;;;3.87;;
5688;SDS011;2869;50.432;8.680;2023-09-08T14:25:52;4.87;;;4.07;;
5688;SDS011;2869;50.432;8.680;2023-09-08T14:28:19;4.73;;;4.33;;
5688;SDS011;2869;50.432;8.680;2023-09-08T14:30:46;9.37;;;4.30;;
5688;SDS011;2869;50.432;8.680;2023-09-08T14:33:15;4.70;;;4.30;;
5688;SDS011;2869;50.432;8.680;2023-09-08T14:35:41;5.00;;;3.70;;
5688;SDS011;2869;50.432;8.680;2023-09-08T14:38:08;7.10;;;4.30;;
5688;SDS011;2869;50.432;8.680;2023-09-08T14:40:35;6.57;;;4.33;;
5688;SDS011;2869;50.432;8.680;2023-09-08T14:43:02;5.13;;;4.10;;
5688;SDS011;2869;50.432;8.680;2023-09-08T14:45:30;6.17;;;3.93;;
5688;SDS011;2869;50.432;8.680;2023-09-08T14:47:57;6.10;;;3.70;;
5688;SDS011;2869;50.432;8.680;2023-09-08T14:50:23;6.43;;;4.37;;
5688;SDS011;2869;50.432;8.680;2023-09-08T14:52:50;6.57;;;4.63;;
5688;SDS011;2869;50.432;8.680;2023-09-08T14:55:17;4.17;;;3.70;;
5688;SDS011;2869;50.432;8.680;2023-09-08T14:57:43;5.57;;;4.20;;
5688;SDS011;2869;50.432;8.680;2023-09-08T15:00:11;5.63;;;4.00;;
5688;SDS011;2869;50.432;8.680;2023-09-08T15:02:40;10.13;;;4.30;;
5688;SDS011;2869;50.432;8.680;2023-09-08T15:05:07;6.20;;;4.13;;
5688;SDS011;2869;50.432;8.680;2023-09-08T15:07:34;7.10;;;4.33;;
5688;SDS011;2869;50.432;8.680;2023-09-08T15:10:00;5.53;;;4.00;;
5688;SDS011;2869;50.432;8.680;2023-09-08T15:12:29;6.33;;;4.30;;
5688;SDS011;2869;50.432;8.680;2023-09-08T15:14:55;5.97;;;4.07;;